• Join FlightAware (Why Join?)
  • Login
  • US Flag GB Flag 
16:01 EDT


 

Airport Tracker/Info


-or-


 

Live Flight TrackerFlight Track Log ✈ AVN10 ✈ 09-Apr-2014 ✈ NVVV / VLI - YSSY / SYD

Flight Track Log - Related Links

Times and Time Zones

All times are in EDT time to prevent confusion due to time zone crossing. See the AVN10 flight status page for this flight to view local times or setup timezone preferences in your user account.

Time Position Orientation Groundspeed Altitude Reporting Facility
EDT Latitude Longitude Course Direction KTS MPH feet Rate Location/Type
00:20 -18.0549 168.0053 220° Southwest  Level Estimated
00:21 -18.1437 167.9265 220° Southwest  Level Estimated
00:22 -18.2325 167.8476 220° Southwest  Level Estimated
00:23 -18.3212 167.7686 220° Southwest  Level Estimated
00:24 -18.4099 167.6896 220° Southwest  Level Estimated
00:25 -18.4986 167.6104 220° Southwest  Level Estimated
00:26 -18.5872 167.5312 220° Southwest  Level Estimated
00:27 -18.6758 167.4519 220° Southwest  Level Estimated
00:28 -18.7644 167.3725 220° Southwest  Level Estimated
00:29 -18.8530 167.2931 220° Southwest  Level Estimated
00:30 -18.9415 167.2135 220° Southwest  Level Estimated
00:31 -19.0300 167.1339 220° Southwest  Level Estimated
00:32 -19.1184 167.0542 220° Southwest  Level Estimated
00:33 -19.2068 166.9743 220° Southwest  Level Estimated
00:34 -19.2952 166.8945 220° Southwest  Level Estimated
00:35 -19.3835 166.8145 220° Southwest  Level Estimated
00:36 -19.4718 166.7344 221° Southwest  Level Estimated
00:37 -19.5601 166.6543 221° Southwest  Level Estimated
00:38 -19.6483 166.5740 221° Southwest  Level Estimated
00:39 -19.7365 166.4937 221° Southwest  Level Estimated
00:40 -19.8247 166.4133 221° Southwest  Level Estimated
00:41 -19.9128 166.3328 221° Southwest  Level Estimated
00:42 -20.0009 166.2522 221° Southwest  Level Estimated
00:43 -20.0890 166.1715 221° Southwest  Level Estimated
00:44 -20.1770 166.0907 221° Southwest  Level Estimated
00:45 -20.2650 166.0098 221° Southwest  Level Estimated
00:46 -20.3529 165.9289 221° Southwest  Level Estimated
00:47 -20.4408 165.8478 221° Southwest  Level Estimated
00:48 -20.5287 165.7667 221° Southwest  Level Estimated
00:49 -20.6165 165.6854 221° Southwest  Level Estimated
00:50 -20.7043 165.6041 221° Southwest  Level Estimated
00:51 -20.7921 165.5227 221° Southwest  Level Estimated
00:52 -20.8798 165.4411 221° Southwest  Level Estimated
00:53 -20.9675 165.3595 221° Southwest  Level Estimated
00:54 -21.0551 165.2778 221° Southwest  Level Estimated
00:55 -21.1427 165.1960 221° Southwest  Level Estimated
00:56 -21.2303 165.1141 221° Southwest  Level Estimated
00:57 -21.3178 165.0321 221° Southwest  Level Estimated
00:58 -21.4053 164.9500 221° Southwest  Level Estimated
00:59 -21.4927 164.8678 221° Southwest  Level Estimated
01:00 -21.5801 164.7855 221° Southwest  Level Estimated
01:01 -21.6675 164.7031 221° Southwest  Level Estimated
01:02 -21.7548 164.6206 221° Southwest  Level Estimated
01:03 -21.8421 164.5380 221° Southwest  Level Estimated
01:04 -21.9293 164.4553 221° Southwest  Level Estimated
01:05 -22.0165 164.3725 221° Southwest  Level Estimated
01:06 -22.1036 164.2896 221° Southwest  Level Estimated
01:07 -22.1908 164.2066 221° Southwest  Level Estimated
01:08 -22.2778 164.1235 221° Southwest  Level Estimated
01:09 -22.3649 164.0403 221° Southwest  Level Estimated
01:10 -22.4519 163.9570 222° Southwest  Level Estimated
01:11 -22.5388 163.8736 222° Southwest  Level Estimated
01:12 -22.6257 163.7900 222° Southwest  Level Estimated
01:13 -22.7125 163.7064 222° Southwest  Level Estimated
01:14 -22.7994 163.6227 222° Southwest  Level Estimated
01:15 -22.8861 163.5388 222° Southwest  Level Estimated
01:16 -22.9729 163.4549 222° Southwest  Level Estimated
01:17 -23.0595 163.3708 222° Southwest  Level Estimated
01:18 -23.1462 163.2866 222° Southwest  Level Estimated
01:19 -23.2328 163.2024 222° Southwest  Level Estimated
01:20 -23.3193 163.1180 222° Southwest  Level Estimated
01:21 -23.4058 163.0335 222° Southwest  Level Estimated
01:22 -23.4923 162.9489 222° Southwest  Level Estimated
01:23 -23.5787 162.8642 222° Southwest  Level Estimated
01:24 -23.6650 162.7793 222° Southwest  Level Estimated
01:25 -23.7514 162.6944 222° Southwest  Level Estimated
01:26 -23.8376 162.6093 222° Southwest  Level Estimated
01:27 -23.9238 162.5242 222° Southwest  Level Estimated
01:28 -24.0100 162.4389 222° Southwest  Level Estimated
01:29 -24.0961 162.3535 222° Southwest  Level Estimated
01:30 -24.1822 162.2680 222° Southwest  Level Estimated
01:31 -24.2683 162.1824 222° Southwest  Level Estimated
01:32 -24.3543 162.0966 222° Southwest  Level Estimated
01:33 -24.4402 162.0108 222° Southwest  Level Estimated
01:34 -24.5261 161.9248 222° Southwest  Level Estimated
01:34 -24.8685 163.1225 221° Southwest 36,000  Level Aus ATC (Calculated)
01:36 -24.9919 162.9810 226° Southwest  Level Estimated
01:37 -25.0662 162.8978 225° Southwest  Level FlightAware Approximate
01:37 -25.1905 162.7617 221° Southwest 36,000  Level Aus ATC (Calculated)
01:38 -25.2390 162.7070 221° Southwest 36,000  Level Aus ATC (Calculated)
01:39 -25.3131 162.6235 226° Southwest  Level FlightAware Approximate
01:40 -25.3871 162.5399 226° Southwest  Level FlightAware Approximate
01:41 -25.4611 162.4562 226° Southwest  Level FlightAware Approximate
01:41 -25.6155 162.2810 221° Southwest 36,000  Level Aus ATC (Calculated)
01:42 -25.7798 162.0938 220° Southwest 36,000  Level Aus ATC (Calculated)
01:44 -25.8779 161.9816 226° Southwest  Level FlightAware Approximate
01:45 -25.9506 161.8984 226° Southwest  Level FlightAware Approximate
01:46 -26.0231 161.8151 226° Southwest  Level FlightAware Approximate
01:47 -26.0957 161.7316 226° Southwest  Level FlightAware Approximate
01:48 -26.1682 161.6481 226° Southwest  Level FlightAware Approximate
01:49 -26.2406 161.5645 226° Southwest  Level FlightAware Approximate
01:49 -26.4819 161.2847 220° Southwest 36,000  Level Aus ATC (Calculated)
01:51 -26.5926 161.1558 226° Southwest  Level FlightAware Approximate
01:52 -26.6648 161.0715 226° Southwest  Level FlightAware Approximate
01:53 -26.7369 160.9872 226° Southwest  Level FlightAware Approximate
01:54 -26.8089 160.9027 226° Southwest  Level FlightAware Approximate
01:55 -26.8809 160.8181 226° Southwest  Level FlightAware Approximate
01:56 -26.9529 160.7334 226° Southwest  Level FlightAware Approximate
01:57 -27.0248 160.6487 226° Southwest  Level FlightAware Approximate
01:58 -27.0966 160.5638 226° Southwest  Level FlightAware Approximate
01:59 -27.1684 160.4788 226° Southwest  Level FlightAware Approximate
02:00 -27.2402 160.3936 227° Southwest  Level FlightAware Approximate
02:01 -27.3118 160.3084 227° Southwest  Level FlightAware Approximate
02:02 -27.3835 160.2231 227° Southwest  Level FlightAware Approximate
02:03 -27.4551 160.1376 227° Southwest  Level FlightAware Approximate
02:03 -27.8693 159.6398 216° Southwest 36,000  Level Aus ATC (Calculated)
02:05 -28.0082 159.4716 227° Southwest  Level FlightAware Approximate
02:05 -28.0620 159.4062 214° Southwest 36,000  Level Aus ATC (Calculated)
02:07 -28.2005 159.2374 227° Southwest  Level FlightAware Approximate
02:07 -28.2542 159.1718 213° Southwest 36,000  Level Aus ATC (Calculated)
02:09 -28.2852 159.1338 227° Southwest  Level FlightAware Approximate
02:10 -28.3561 159.0469 227° Southwest  Level FlightAware Approximate
02:11 -28.4269 158.9599 227° Southwest  Level FlightAware Approximate
02:12 -28.4977 158.8728 227° Southwest  Level FlightAware Approximate
02:12 -28.7024 158.6197 207° Southwest 36,000  Level Aus ATC (Calculated)
02:12 -28.7836 158.5188 206° Southwest 36,000  Level Aus ATC (Calculated)
02:14 -28.8615 158.4219 227° Southwest  Level FlightAware Approximate
02:15 -28.9322 158.3336 228° Southwest  Level FlightAware Approximate
02:16 -29.0029 158.2452 228° Southwest  Level FlightAware Approximate
02:17 -29.0736 158.1567 228° Southwest  Level FlightAware Approximate
02:17 -29.1886 158.0121 192° South 36,000  Level Aus ATC (Calculated)
02:18 -29.1441 158.0680 228° Southwest  Level FlightAware Approximate
02:19 -29.2732 157.9055 228° Southwest  Level FlightAware Approximate
02:20 -29.3436 157.8165 228° Southwest  Level FlightAware Approximate
02:21 -29.4139 157.7274 228° Southwest  Level FlightAware Approximate
02:22 -29.4842 157.6381 228° Southwest  Level FlightAware Approximate
02:22 -29.6318 157.4501 147° Southeast 36,000  Level Aus ATC (Calculated)
02:23 -29.5545 157.5488 228° Southwest  Level FlightAware Approximate
02:24 -29.7201 157.3372 228° Southwest  Level FlightAware Approximate
02:25 -29.7936 157.2431 228° Southwest  Level FlightAware Approximate
02:26 -29.8669 157.1487 228° Southwest  Level FlightAware Approximate
02:27 -29.9403 157.0543 228° Southwest  Level FlightAware Approximate
02:27 -30.0327 156.9349 95° East 36,000  Level Aus ATC (Calculated)
02:28 -30.0135 156.9597 228° Southwest  Level FlightAware Approximate
02:29 -30.1217 156.8196 228° Southwest  Level FlightAware Approximate
02:30 -30.1948 156.7246 228° Southwest  Level FlightAware Approximate
02:31 -30.2678 156.6295 228° Southwest  Level FlightAware Approximate
02:32 -30.3408 156.5343 228° Southwest  Level FlightAware Approximate
02:32 -30.4713 156.3634 73° East 36,000  Level Aus ATC (Calculated)
02:33 -30.4137 156.4389 228° Southwest  Level FlightAware Approximate
02:34 -30.5598 156.2471 229° Southwest  Level FlightAware Approximate
02:35 -30.6324 156.1513 229° Southwest  Level FlightAware Approximate
02:36 -30.7050 156.0553 229° Southwest  Level FlightAware Approximate
02:37 -30.7776 155.9592 229° Southwest  Level FlightAware Approximate
02:37 -30.9357 155.8322 64° Northeast 34,000  Level Aus ATC (Calculated)
02:39 -30.8813 155.8625 206° Southwest  Level FlightAware Approximate
02:40 -30.9805 155.8073 206° Southwest  Level FlightAware Approximate
02:40 -31.3121 155.6216 57° Northeast 34,000  Level Aus ATC (Calculated)
02:41 -31.0796 155.7519 206° Southwest  Level FlightAware Approximate
02:41 -31.3121 155.6216 57° Northeast 34,000  Level Aus ATC (Calculated)
02:42 -31.4111 155.5658 206° Southwest  Level FlightAware Approximate
02:42 -30.0898 157.7930 206° Southwest 348 400 36,100  Level Aus ATC (RADAR)
02:42 -30.1430 157.7453 218° Southwest 406 467 36,100  Level Aus ATC (RADAR)
02:43 -30.2071 157.6865 218° Southwest 398 458 36,100  Level Aus ATC (RADAR)
02:44 -30.2435 157.6533 218° Southwest 399 459 36,100  Level Aus ATC (RADAR)
02:44 -30.3011 157.6004 218° Southwest 398 458 36,100  Level Aus ATC (RADAR)
02:45 -30.3646 157.5413 219° Southwest 396 456 36,100  Level Aus ATC (RADAR)
02:46 -30.4130 157.4962 219° Southwest 391 450 36,100  Level Aus ATC (RADAR)
02:46 -30.4833 157.4309 219° Southwest 389 448 36,100  Level Aus ATC (RADAR)
02:47 -30.5195 157.3975 218° Southwest 392 451 36,100  Level Aus ATC (RADAR)
02:47 -30.5705 157.3506 218° Southwest 396 456 36,100  Level Aus ATC (RADAR)
02:48 -30.6369 157.2891 219° Southwest 401 461 36,100  Level Aus ATC (RADAR)
02:49 -30.6880 157.2417 219° Southwest 402 463 36,100  Level Aus ATC (RADAR)
02:50 -30.7597 157.1751 219° Southwest 400 460 36,100  Level Aus ATC (RADAR)
02:50 -30.7931 157.1438 219° Southwest 392 451 36,100  Level Aus ATC (RADAR)
02:51 -30.8431 157.0974 219° Southwest 393 452 36,100  Level Aus ATC (RADAR)
02:51 -30.9079 157.0370 219° Southwest 397 457 36,100  Level Aus ATC (RADAR)
02:52 -30.9578 156.9904 219° Southwest 396 456 36,100  Level Aus ATC (RADAR)
02:52 -31.0078 156.9437 219° Southwest 396 456 36,100  Level Aus ATC (RADAR)
02:53 -31.0581 156.8967 219° Southwest 397 457 36,100  Level Aus ATC (RADAR)
02:54 -31.1083 156.8496 219° Southwest 398 458 36,100  Level Aus ATC (RADAR)
02:55 -31.2014 156.7622 219° Southwest 398 458 36,100  Level Aus ATC (RADAR)
02:55 -31.2374 156.7282 219° Southwest 399 459 36,100  Level Aus ATC (RADAR)
02:56 -31.2876 156.6810 219° Southwest 399 459 36,100  Level Aus ATC (RADAR)
02:56 -31.3520 156.6203 219° Southwest 398 458 36,100  Level Aus ATC (RADAR)
02:57 -31.4022 156.5728 219° Southwest 398 458 36,100  Level Aus ATC (RADAR)
02:58 -31.4736 156.5053 219° Southwest 398 458 36,100  Level Aus ATC (RADAR)
02:58 -31.5091 156.4716 219° Southwest 397 457 36,100  Level Aus ATC (RADAR)
02:59 -31.5588 156.4244 219° Southwest 396 456 36,100  Level Aus ATC (RADAR)
03:00 -31.6298 156.3570 219° Southwest 395 455 36,100  Level Aus ATC (RADAR)
03:00 -31.6649 156.3235 219° Southwest 393 452 36,100  Level Aus ATC (RADAR)
03:01 -31.7149 156.2760 219° Southwest 395 455 36,100  Level Aus ATC (RADAR)
03:01 -31.7644 156.2289 219° Southwest 395 455 36,100  Level Aus ATC (RADAR)
03:02 -31.8141 156.1815 219° Southwest 396 456 36,100  Level Aus ATC (RADAR)
03:02 -31.8645 156.1339 219° Southwest 397 457 36,100  Level Aus ATC (RADAR)
03:03 -31.9130 156.0871 219° Southwest 393 452 36,100  Level Aus ATC (RADAR)
03:04 -31.9685 156.0333 219° Southwest 391 450 36,100  Level Aus ATC (RADAR)
03:05 -32.0880 155.9183 219° Southwest 392 451 36,100  Level Aus ATC (RADAR)
03:06 -32.1315 155.8766 219° Southwest 397 457 36,100  Level Aus ATC (RADAR)
03:06 -32.1669 155.8426 219° Southwest 397 457 36,100  Level Aus ATC (RADAR)
03:07 -32.2168 155.7945 219° Southwest 397 457 36,100  Level Aus ATC (RADAR)
03:07 -32.2790 155.7338 219° Southwest 393 452 36,100  Level Aus ATC (RADAR)
03:08 -32.3249 155.6882 220° Southwest 388 447 36,100 -180 Level Aus ATC (RADAR)
03:08 -32.3277 155.6858 219° Southwest 394 453 36,000 -240 Descending FlightAware ADS-B (YPLB)
03:08 -32.3715 155.6431 219° Southwest 395 455 36,000  Level FlightAware ADS-B (YPLB)
03:09 -32.4231 155.5929 219° Southwest 397 457 36,000  Level FlightAware ADS-B (YPLB)
03:10 -32.4713 155.5459 219° Southwest 397 457 36,000  Level FlightAware ADS-B (YPLB)
03:10 -32.5418 155.4773 219° Southwest 399 459 36,000  Level FlightAware ADS-B (YPLB)
03:11 -32.5851 155.4349 219° Southwest 399 459 36,000  Level FlightAware ADS-B (YPLB)
03:12 -32.6403 155.3808 219° Southwest 399 459 36,000  Level FlightAware ADS-B (YPLB)
03:12 -32.6975 155.3248 219° Southwest 399 459 36,000  Level FlightAware ADS-B (YPLB)
03:13 -32.7269 155.2958 219° Southwest 399 459 36,000  Level FlightAware ADS-B (YPLB)
03:13 -32.7908 155.2329 219° Southwest 399 459 36,000  Level FlightAware ADS-B (YPLB)
03:14 -32.8414 155.1831 219° Southwest 399 459 36,000  Level FlightAware ADS-B (YPLB)
03:15 -32.9057 155.1196 219° Southwest 399 459 36,000 60 Level FlightAware ADS-B (YPLB)
03:15 -32.9485 155.0768 219° Southwest 400 460 36,100  Climbing Aus ATC (RADAR)
03:16 -32.9773 155.0487 219° Southwest 398 458 36,000  Descending FlightAware ADS-B (YPLB)
03:16 -33.0324 154.9932 219° Southwest 395 455 36,100 60 Climbing Aus ATC (RADAR)
03:17 -33.0879 154.9069 232° Southwest 407 468 36,100 -120 Level Aus ATC (RADAR)
03:17 -33.0924 154.8939 242° Southwest 390 449 36,000 -180 Descending FlightAware ADS-B (YPLB)
03:18 -33.1220 154.8263 242° Southwest 390 449 36,000  Level FlightAware ADS-B (YPLB)
03:18 -33.1328 154.8017 242° Southwest 390 449 36,000  Level FlightAware ADS-B (YPLB)
03:19 -33.1642 154.7299 242° Southwest 390 449 36,000  Level FlightAware ADS-B (YPLB)
03:19 -33.1881 154.6752 242° Southwest 391 450 36,000  Level FlightAware ADS-B (YPLB)
03:20 -33.2349 154.5683 243° Southwest 393 452 36,000  Level FlightAware ADS-B (YRPA)
03:21 -33.2647 154.4992 242° Southwest 394 453 36,000  Level FlightAware ADS-B (YPLB)
03:21 -33.2693 154.4887 243° Southwest 395 455 36,000 120 Level FlightAware ADS-B (YRPA)
03:21 -33.3033 154.4092 243° Southwest 392 451 36,100  Climbing Aus ATC (RADAR)
03:21 -33.3069 154.4020 242° Southwest 395 455 36,000 -180 Descending FlightAware ADS-B (YPLB)
03:22 -33.3328 154.3423 243° Southwest 396 456 36,000  Level FlightAware ADS-B (YRPA)
03:23 -33.3588 154.2822 242° Southwest 396 456 36,000  Level FlightAware ADS-B (YPLB)
03:23 -33.3910 154.2075 242° Southwest 395 455 36,000  Level FlightAware ADS-B (YPLB)
03:24 -33.4269 154.1075 249° West 396 456 36,000  Level FlightAware ADS-B (YPLB)
03:24 -33.4461 154.0446 249° West 396 456 36,000  Level FlightAware ADS-B (YPLB)
03:25 -33.4711 153.9633 250° West 396 456 36,000  Level FlightAware ADS-B (YRPA)
03:26 -33.4961 153.8818 249° West 395 455 36,000  Level FlightAware ADS-B (YPLB)
03:26 -33.5151 153.8202 249° West 395 455 36,000  Level FlightAware ADS-B (YPLB)
03:27 -33.5337 153.7593 250° West 394 453 36,000  Level FlightAware ADS-B (YPLB)
03:27 -33.5533 153.6946 250° West 394 453 36,000  Level FlightAware ADS-B (YPLB)
03:28 -33.5784 153.6116 250° West 393 452 36,000  Level FlightAware ADS-B (YPLB)
03:29 -33.6023 153.5328 250° West 393 452 36,000  Level FlightAware ADS-B (YPLB)
03:29 -33.6212 153.4701 250° West 392 451 36,000  Level FlightAware ADS-B (YPLB)
03:30 -33.6396 153.4093 250° West 392 451 36,000  Level FlightAware ADS-B (YPLB)
03:30 -33.6585 153.3461 250° West 392 451 36,000  Level FlightAware ADS-B (YPLB)
03:31 -33.6769 153.2851 250° West 393 452 36,000  Level FlightAware ADS-B (YPLB)
03:31 -33.6952 153.2241 250° West 392 451 36,000  Level FlightAware ADS-B (YPLB)
03:32 -33.7198 153.1416 250° West 392 451 36,000  Level FlightAware ADS-B (YPLB)
03:32 -33.7386 153.0782 250° West 392 451 36,000 60 Level FlightAware ADS-B (YPLB)
03:33 -33.7562 153.0200 250° West 378 435 36,100  Climbing Aus ATC (RADAR)
03:33 -33.7630 152.9962 250° West 392 451 36,000 -180 Descending FlightAware ADS-B (YPLB)
03:34 -33.7818 152.9329 250° West 392 451 36,000 -480 Level FlightAware ADS-B (YPLB)
03:34 -33.8058 152.8518 250° West 389 448 35,500 -1,740 Descending FlightAware ADS-B (YPLB)
03:35 -33.8164 152.8162 251° West 389 448 34,300 -3,000 Descending FlightAware ADS-B (YSSY / SYD)
03:35 -33.8359 152.7498 250° West 394 453 33,000 -2,940 Descending FlightAware ADS-B (YPLB)
03:36 -33.8542 152.6876 251° West 401 461 31,300 -3,180 Descending FlightAware ADS-B (YRPA)
03:36 -33.8785 152.6051 250° West 402 463 29,300 -2,760 Descending FlightAware ADS-B (YPLB)
03:37 -33.9115 152.4937 250° West 397 457 27,100 -2,580 Descending Aus ATC (RADAR)
03:37 -33.9217 152.4589 250° West 390 449 26,400 -2,640 Descending FlightAware ADS-B (YPLB)
03:38 -33.9396 152.3980 250° West 385 443 25,100 -2,580 Descending FlightAware ADS-B (YPLB)
03:39 -33.9629 152.3170 250° West 380 437 23,500 -2,400 Descending FlightAware ADS-B (YPLB)
03:39 -33.9849 152.2399 251° West 375 432 22,000 -2,340 Descending FlightAware ADS-B (YPLB)
03:40 -34.0025 152.1784 251° West 372 428 20,700 -2,400 Descending FlightAware ADS-B (YRPA)
03:40 -34.0249 152.1008 251° West 366 421 19,200 -2,340 Descending FlightAware ADS-B (YPLB)
03:41 -34.0312 152.0614 265° West 362 417 18,400 -2,520 Descending FlightAware ADS-B (YRPA)
03:41 -34.0301 152.0231 276° West 360 414 17,600 -2,700 Descending FlightAware ADS-B (YSBK / BWU)
03:41 -34.0281 152.0037 276° West 356 410 17,200 -2,220 Descending FlightAware ADS-B (YPLB)
03:41 -34.0246 151.9672 276° West 351 404 16,500 -2,160 Descending FlightAware ADS-B (YPLB)
03:42 -34.0183 151.9055 276° West 352 405 15,400 -2,220 Descending FlightAware ADS-B (YPLB)
03:42 -34.0174 151.8964 276° West 353 406 15,200 -2,400 Descending FlightAware ADS-B (YPLB)
03:42 -34.0148 151.8697 276° West 351 404 14,600 -2,280 Descending FlightAware ADS-B (YPLB)
03:42 -34.0126 151.8486 276° West 348 400 14,300 -2,280 Descending FlightAware ADS-B (YPLB)
03:43 -34.0073 151.7923 276° West 342 394 13,100 -2,280 Descending FlightAware ADS-B (YPLB)
03:44 -34.0001 151.7218 278° West 334 384 11,600 -2,340 Descending FlightAware ADS-B (YSSY / SYD)
03:44 -33.9927 151.6509 278° West 327 376 10,100 -2,400 Descending FlightAware ADS-B (YSBK / BWU)
03:45 -33.9891 151.6177 277° West 326 375 9,300 -1,980 Descending FlightAware ADS-B (YSBK / BWU)
03:45 -33.9862 151.5905 277° West 324 373 9,000 -1,380 Descending FlightAware ADS-B (YPLB)
03:45 -33.9820 151.5520 278° West 329 379 8,600 -900 Descending FlightAware ADS-B (YSBK / BWU)
03:46 -33.9782 151.5149 277° West 334 384 8,400 -660 Descending FlightAware ADS-B (YSBK / BWU)
03:46 -33.9750 151.4845 277° West 334 384 8,200 -600 Descending FlightAware ADS-B (YSBK / BWU)
03:46 -33.9705 151.4408 277° West 334 384 8,000 -420 Descending FlightAware ADS-B (YSBK / BWU)
03:47 -33.9671 151.4077 277° West 332 382 7,900 -240 Descending FlightAware ADS-B (YSBK / BWU)
03:47 -33.9664 151.3903 266° West 328 377 7,900  Level FlightAware ADS-B (YSBK / BWU)
03:47 -33.9697 151.3703 255° West 327 376 7,900  Level FlightAware ADS-B (YSBK / BWU)
03:47 -33.9775 151.3392 253° West 329 379 7,900 -180 Level FlightAware ADS-B (YSBK / BWU)
03:47 -33.9837 151.3143 255° West 329 379 7,800 -480 Descending FlightAware ADS-B (YRAY)
03:48 -33.9874 151.2991 255° West 329 379 7,700 -420 Descending FlightAware ADS-B (YRAY)
03:48 -33.9912 151.2839 253° West 331 381 7,700 -660 Level FlightAware ADS-B (YPLB)
03:48 -33.9965 151.2626 253° West 329 379 7,500 -900 Descending FlightAware ADS-B (YSBK / BWU)
03:48 -33.9998 151.2494 253° West 320 368 7,400 -1,020 Descending FlightAware ADS-B (YPLB)
03:48 -34.0040 151.2321 253° West 310 357 7,200 -780 Descending FlightAware ADS-B (YPLB)
03:49 -34.0113 151.2025 253° West 291 335 7,000 -660 Descending FlightAware ADS-B (YRAY)
03:49 -34.0187 151.1732 253° West 284 327 6,800 -780 Descending FlightAware ADS-B (YRAY)
03:49 -34.0251 151.1516 244° Southwest 280 322 6,600 -900 Descending FlightAware ADS-B (YSBK / BWU)
03:49 -34.0294 151.1435 234° Southwest 281 323 6,500 -660 Descending FlightAware ADS-B (YRAY)
03:49 -34.0425 151.1302 211° Southwest 279 321 6,400 -600 Descending FlightAware ADS-B (YSBK / BWU)
03:49 -34.0485 151.1271 199° South 278 320 6,300 -1,020 Descending FlightAware ADS-B (YSBK / BWU)
03:50 -34.0597 151.1235 193° South 275 316 6,100 -1,200 Descending FlightAware ADS-B (YSBK / BWU)
03:50 -34.0882 151.1164 192° South 268 308 5,700 -1,080 Descending FlightAware ADS-B (YRAY)
03:50 -34.1104 151.1108 192° South 265 305 5,400 -1,140 Descending FlightAware ADS-B (YRAY)
03:50 -34.1169 151.1092 191° South 272 313 5,300 -1,200 Descending FlightAware ADS-B (YPLB)
03:51 -34.1362 151.1052 184° South 274 315 5,000 -1,200 Descending FlightAware ADS-B (YRAY)
03:51 -34.1375 151.1052 177° South 273 314 4,900 -1,140 Descending FlightAware ADS-B (YSBK / BWU)
03:51 -34.1500 151.1075 165° South 271 312 4,800 -1,020 Descending FlightAware ADS-B (YRAY)
03:51 -34.1609 151.1142 147° Southeast 268 308 4,600 -1,140 Descending FlightAware ADS-B (YRAY)
03:51 -34.1659 151.1194 136° Southeast 264 304 4,500 -1,500 Descending FlightAware ADS-B (YRPA)
03:51 -34.1705 151.1262 122° Southeast 262 302 4,300 -1,500 Descending FlightAware ADS-B (YSBK / BWU)
03:51 -34.1758 151.1409 104° East 256 295 4,100 -1,320 Descending FlightAware ADS-B (YSBK / BWU)
03:52 -34.1766 151.1474 89° East 249 287 3,900 -840 Descending FlightAware ADS-B (YSBK / BWU)
03:52 -34.1742 151.1826 84° East 235 270 3,700 -540 Descending FlightAware ADS-B (YSBK / BWU)
03:52 -34.1722 151.1977 70° East 214 246 3,600 -360 Descending FlightAware ADS-B (YRPA)
03:52 -34.1701 151.2035 61° Northeast 208 239 3,600  Level FlightAware ADS-B (YSBK / BWU)
03:52 -34.1645 151.2115 35° Northeast 197 227 3,600 -300 Level FlightAware ADS-B (YSBK / BWU)
03:53 -34.1590 151.2154 20° North 195 224 3,500 -600 Descending FlightAware ADS-B (YSBK / BWU)
03:53 -34.1369 151.2232 North 191 220 3,300 -660 Descending FlightAware ADS-B (YSBK / BWU)
03:53 -34.1333 151.2234 356° North 191 220 3,200 -1,380 Descending FlightAware ADS-B (YSBK / BWU)
03:53 -34.1207 151.2215 347° North 195 224 2,900 -1,200 Descending FlightAware ADS-B (YSBK / BWU)
03:54 -34.1024 151.2166 348° North 192 221 2,600 360 Descending FlightAware ADS-B (YSBK / BWU)
03:54 -34.0963 151.2150 347° North 186 214 3,100 -1,020 Climbing FlightAware ADS-B (YRAY)
03:54 -34.0783 151.2102 348° North 190 219 2,100 -2,160 Descending FlightAware ADS-B (YSBK / BWU)
03:54 -34.0605 151.2056 348° North 167 192 1,700 -1,080 Descending FlightAware ADS-B (YSBK / BWU)
03:55 -34.0470 151.2021 347° North 152 175 1,400 -840 Descending FlightAware ADS-B (YSBK / BWU)
03:55 -34.0360 151.1993 348° North 148 170 1,200 -720 Descending FlightAware ADS-B (YSBK / BWU)
03:55 -34.0249 151.1964 347° North 149 171 1,000 -720 Descending FlightAware ADS-B (YRPA)
03:56 -34.0119 151.1929 348° North 147 169 800 -720 Descending FlightAware ADS-B (YSBK / BWU)
03:56 -33.9987 151.1897 348° North 148 170 600 -780 Descending FlightAware ADS-B (YSBK / BWU)
03:56 -33.9850 151.1861 348° North 148 170 300 -780 Descending FlightAware ADS-B (YSBK / BWU)
03:56 -33.9741 151.1832 348° North 146 168 100 -720 Descending FlightAware ADS-B (YRAY)